Terminal Aerodrome Forecast
Issued by NWS

Home | Current Version | Previous Version | Text Only | Print | Product List | Glossary On
Versions: 1 2 3 4 5 6 7 8 9 10 11 12 13 14 15 16 17
382
FTUS46 KSGX 262320
TAFSNA
TAF
KSNA 262320Z 2700/2724 23010KT P6SM SKC
     FM270300 VRB04KT P6SM SKC
      TEMPO 2711/2715 BKN009
     FM271900 22010KT P6SM SKC=

USA.gov is the U.S. government's official web portal to all federal, state and local government web resources and services.